createdAt,value
2023-04-29T00:02:11.507Z,98284.72
2023-04-29T00:04:40.140Z,98283.81
2023-04-29T00:07:09.275Z,98275.38
2023-04-29T00:09:38.699Z,98269.00
2023-04-29T00:12:07.033Z,98262.47
2023-04-29T00:14:35.374Z,98243.63
2023-04-29T00:17:04.073Z,98252.69
2023-04-29T00:19:33.837Z,98241.81
2023-04-29T00:22:04.174Z,98242.75
2023-04-29T00:24:32.525Z,98234.53
2023-04-29T00:27:02.544Z,98236.50
2023-04-29T00:29:30.982Z,98231.03
2023-04-29T00:31:59.383Z,98232.97
2023-04-29T00:34:27.701Z,98253.78
2023-04-29T00:36:57.458Z,98258.69
2023-04-29T00:39:25.786Z,98258.84
2023-04-29T00:41:54.519Z,98260.66
2023-04-29T00:44:22.874Z,98263.34
2023-04-29T00:46:51.150Z,98258.03
2023-04-29T00:49:19.434Z,98269.31
2023-04-29T00:51:49.050Z,98274.00
2023-04-29T00:54:19.116Z,98271.50
2023-04-29T00:56:47.561Z,98263.84
2023-04-29T00:59:17.138Z,98269.00
2023-04-29T01:01:46.071Z,98268.31
2023-04-29T01:04:16.594Z,98263.91
2023-04-29T01:06:57.268Z,98278.16
2023-04-29T01:09:41.421Z,98284.19
2023-04-29T01:12:20.953Z,98295.88
2023-04-29T01:14:55.384Z,98301.88
2023-04-29T01:17:26.739Z,98299.47
2023-04-29T01:19:57.850Z,98300.16
2023-04-29T01:22:26.646Z,98308.88
2023-04-29T01:24:56.335Z,98307.31
2023-04-29T01:27:30.880Z,98311.13
2023-04-29T01:30:18.553Z,98288.63
2023-04-29T01:32:58.220Z,98311.22
2023-04-29T01:35:46.957Z,98320.53
2023-04-29T01:38:24.567Z,98314.78
2023-04-29T01:41:05.444Z,98312.31
2023-04-29T01:43:38.464Z,98316.84
2023-04-29T01:46:19.372Z,98323.50
2023-04-29T01:48:48.000Z,98310.06
2023-04-29T01:51:16.306Z,98317.09
2023-04-29T01:53:44.768Z,98316.00
2023-04-29T01:56:16.685Z,98299.31
2023-04-29T01:59:02.300Z,98318.53
2023-04-29T02:01:40.237Z,98305.91
2023-04-29T02:04:08.869Z,98316.47
2023-04-29T02:06:38.611Z,98315.50
2023-04-29T02:09:10.073Z,98316.88
2023-04-29T02:11:40.235Z,98315.44
2023-04-29T02:14:12.571Z,98314.88
2023-04-29T02:16:40.940Z,98309.88
2023-04-29T02:19:09.325Z,98310.59
2023-04-29T02:21:40.701Z,98302.91
2023-04-29T02:24:09.050Z,98315.84
2023-04-29T02:26:38.178Z,98318.31
2023-04-29T02:29:08.323Z,98297.19
2023-04-29T02:31:36.643Z,98324.56
2023-04-29T02:34:05.210Z,98308.59
2023-04-29T02:36:35.938Z,98307.94
2023-04-29T02:39:06.637Z,98311.81
2023-04-29T02:41:34.974Z,98311.22
2023-04-29T02:44:03.373Z,98318.94
2023-04-29T02:46:34.578Z,98314.28
2023-04-29T02:49:05.862Z,98311.53
2023-04-29T02:51:34.291Z,98312.88
2023-04-29T02:54:02.652Z,98313.47
2023-04-29T02:56:30.922Z,98313.13
2023-04-29T02:59:01.743Z,98309.97
2023-04-29T03:01:30.155Z,98315.00
2023-04-29T03:03:59.904Z,98321.16
2023-04-29T03:06:28.713Z,98321.84
2023-04-29T03:08:57.624Z,98311.88
2023-04-29T03:11:25.904Z,98321.09
2023-04-29T03:13:54.372Z,98309.00
2023-04-29T03:16:23.172Z,98323.50
2023-04-29T03:18:51.496Z,98316.50
2023-04-29T03:21:23.303Z,98323.63
2023-04-29T03:23:51.770Z,98328.28
2023-04-29T03:26:26.449Z,98325.75
2023-04-29T03:28:54.735Z,98323.47
2023-04-29T03:31:25.654Z,98316.41
2023-04-29T03:33:54.276Z,98321.69
2023-04-29T03:36:26.254Z,98314.44
2023-04-29T03:39:01.687Z,98308.16
2023-04-29T03:41:31.114Z,98314.72
2023-04-29T03:44:00.934Z,98310.38
2023-04-29T03:46:30.810Z,98316.75
2023-04-29T03:48:59.295Z,98308.28
2023-04-29T03:51:29.667Z,98313.84
2023-04-29T03:54:07.046Z,98311.94
2023-04-29T03:56:35.840Z,98311.97
2023-04-29T03:59:04.227Z,98319.00
2023-04-29T04:01:33.296Z,98313.16
2023-04-29T04:04:04.405Z,98305.84
2023-04-29T04:06:35.229Z,98308.31
2023-04-29T04:09:03.966Z,98316.34
2023-04-29T04:11:35.127Z,98314.78
2023-04-29T04:14:05.757Z,98319.97
2023-04-29T04:16:34.334Z,98319.31
2023-04-29T04:19:03.706Z,98326.06
2023-04-29T04:21:36.455Z,98334.94
2023-04-29T04:24:08.208Z,98334.31
2023-04-29T04:26:36.714Z,98339.91
2023-04-29T04:29:11.502Z,98346.25
2023-04-29T04:31:51.403Z,98353.56
2023-04-29T04:34:21.229Z,98348.19
2023-04-29T04:36:54.411Z,98353.03
2023-04-29T04:39:23.938Z,98365.44
2023-04-29T04:41:56.650Z,98363.34
2023-04-29T04:44:25.172Z,98366.59
2023-04-29T04:47:22.535Z,98355.47
2023-04-29T04:50:08.949Z,98358.78
2023-04-29T04:52:40.680Z,98349.31
2023-04-29T04:55:38.298Z,98360.88
2023-04-29T04:58:07.154Z,98351.31
2023-04-29T05:00:36.226Z,98359.97
2023-04-29T05:03:07.674Z,98361.13
2023-04-29T05:05:36.315Z,98359.81
2023-04-29T05:08:06.488Z,98364.94
2023-04-29T05:10:43.982Z,98360.25
2023-04-29T05:13:13.828Z,98377.06
2023-04-29T05:15:44.575Z,98371.44
2023-04-29T05:18:13.252Z,98368.88
2023-04-29T05:20:44.580Z,98377.56
2023-04-29T05:23:14.319Z,98369.56
2023-04-29T05:25:44.232Z,98374.41
2023-04-29T05:28:12.570Z,98380.78
2023-04-29T05:30:43.840Z,98379.25
2023-04-29T05:33:12.298Z,98380.38
2023-04-29T05:35:41.204Z,98381.38
2023-04-29T05:38:09.559Z,98374.78
2023-04-29T05:40:42.404Z,98373.19
2023-04-29T05:43:31.263Z,98361.78
2023-04-29T05:45:59.896Z,98356.09
2023-04-29T05:48:31.256Z,98367.59
2023-04-29T05:50:59.926Z,98378.56
2023-04-29T05:53:28.425Z,98390.88
2023-04-29T05:55:58.458Z,98393.84
2023-04-29T05:58:27.025Z,98392.72
2023-04-29T06:00:55.429Z,98398.81
2023-04-29T06:03:26.873Z,98396.66
2023-04-29T06:06:13.953Z,98398.72
2023-04-29T06:08:55.849Z,98407.91
2023-04-29T06:11:29.310Z,98414.59
2023-04-29T06:13:57.460Z,98424.53
2023-04-29T06:16:25.573Z,98431.22
2023-04-29T06:18:55.076Z,98423.44
2023-04-29T06:21:23.331Z,98427.91
2023-04-29T06:23:51.317Z,98429.19
2023-04-29T06:26:21.476Z,98438.13
2023-04-29T06:28:51.241Z,98432.22
2023-04-29T06:31:21.810Z,98432.53
2023-04-29T06:33:51.568Z,98444.09
2023-04-29T06:36:19.594Z,98432.69
2023-04-29T06:39:14.235Z,98430.84
2023-04-29T06:41:59.735Z,98421.81
2023-04-29T06:44:55.673Z,98432.31
2023-04-29T06:47:40.943Z,98418.66
2023-04-29T06:50:13.773Z,98420.00
2023-04-29T06:52:42.187Z,98413.34
2023-04-29T06:55:12.838Z,98424.25
2023-04-29T06:57:43.724Z,98434.25
2023-04-29T07:00:15.029Z,98432.16
2023-04-29T07:02:43.365Z,98440.84
2023-04-29T07:05:12.131Z,98450.63
2023-04-29T07:07:48.302Z,98455.81
2023-04-29T07:10:16.672Z,98442.47
2023-04-29T07:12:45.097Z,98445.22
2023-04-29T07:15:14.831Z,98451.69
2023-04-29T07:17:43.170Z,98458.16
2023-04-29T07:20:15.386Z,98458.91
2023-04-29T07:22:43.705Z,98469.84
2023-04-29T07:25:12.061Z,98483.16
2023-04-29T07:27:42.510Z,98475.69
2023-04-29T07:30:14.436Z,98469.72
2023-04-29T07:32:43.106Z,98484.31
2023-04-29T07:35:11.431Z,98486.44
2023-04-29T07:37:44.124Z,98479.19
2023-04-29T07:40:14.788Z,98485.53
2023-04-29T07:42:44.076Z,98484.09
2023-04-29T07:45:15.075Z,98491.94
2023-04-29T07:47:43.521Z,98492.50
2023-04-29T07:50:12.078Z,98491.75
2023-04-29T07:52:40.632Z,98490.72
2023-04-29T07:55:11.385Z,98490.66
2023-04-29T07:57:39.843Z,98499.16
2023-04-29T08:00:09.860Z,98498.66
2023-04-29T08:02:45.668Z,98492.44
2023-04-29T08:05:16.811Z,98501.91
2023-04-29T08:07:48.261Z,98503.41
2023-04-29T08:10:16.858Z,98511.47
2023-04-29T08:12:47.991Z,98522.72
2023-04-29T08:15:18.438Z,98519.09
2023-04-29T08:17:48.280Z,98521.03
2023-04-29T08:20:16.739Z,98524.81
2023-04-29T08:22:47.175Z,98515.13
2023-04-29T08:25:15.941Z,98519.19
2023-04-29T08:27:45.855Z,98511.72
2023-04-29T08:30:17.361Z,98517.00
2023-04-29T08:32:45.738Z,98505.69
2023-04-29T08:35:15.717Z,98507.91
2023-04-29T08:37:44.117Z,98506.53
2023-04-29T08:40:14.390Z,98501.47
2023-04-29T08:42:48.747Z,98512.94
2023-04-29T08:45:22.809Z,98484.34
2023-04-29T08:47:52.546Z,98518.28
2023-04-29T08:50:22.260Z,98523.41
2023-04-29T08:52:51.835Z,98527.66
2023-04-29T08:55:20.207Z,98525.25
2023-04-29T08:57:51.220Z,98536.19
2023-04-29T09:00:20.613Z,98526.72
2023-04-29T09:02:52.090Z,98525.34
2023-04-29T09:05:22.615Z,98534.09
2023-04-29T09:07:52.508Z,98526.13
2023-04-29T09:10:21.835Z,98526.66
2023-04-29T09:12:50.179Z,98530.78
2023-04-29T09:15:18.793Z,98530.94
2023-04-29T09:17:48.599Z,98533.50
2023-04-29T09:20:31.806Z,98535.47
2023-04-29T09:23:04.114Z,98542.53
2023-04-29T09:25:32.576Z,98528.94
2023-04-29T09:28:16.357Z,98531.66
2023-04-29T09:30:48.195Z,98538.59
2023-04-29T09:33:17.234Z,98545.81
2023-04-29T09:35:48.734Z,98548.81
2023-04-29T09:38:17.672Z,98533.84
2023-04-29T09:40:57.610Z,98538.00
2023-04-29T09:43:27.114Z,98548.56
2023-04-29T09:45:56.954Z,98550.00
2023-04-29T09:48:33.652Z,98550.91
2023-04-29T09:51:04.073Z,98548.66
2023-04-29T09:53:32.969Z,98561.84
2023-04-29T09:56:03.635Z,98552.97
2023-04-29T09:58:34.001Z,98562.16
2023-04-29T10:01:04.056Z,98563.53
2023-04-29T10:03:34.318Z,98560.38
2023-04-29T10:06:06.240Z,98557.97
2023-04-29T10:08:35.649Z,98553.34
2023-04-29T10:11:05.751Z,98560.19
2023-04-29T10:13:39.095Z,98560.63
2023-04-29T10:16:16.557Z,98545.09
2023-04-29T10:18:53.083Z,98562.53
2023-04-29T10:21:28.580Z,98565.16
2023-04-29T10:23:58.325Z,98557.03
2023-04-29T10:26:29.258Z,98564.06
2023-04-29T10:29:00.047Z,98556.41
2023-04-29T10:31:28.692Z,98552.81
2023-04-29T10:33:58.564Z,98547.78
2023-04-29T10:36:31.594Z,98556.81
2023-04-29T10:39:03.638Z,98545.66
2023-04-29T10:41:38.820Z,98551.41
2023-04-29T10:44:07.193Z,98547.22
2023-04-29T10:46:38.068Z,98541.50
2023-04-29T10:49:07.714Z,98542.97
2023-04-29T10:51:42.163Z,98547.03
2023-04-29T10:54:13.446Z,98562.03
2023-04-29T10:56:43.947Z,98546.00
2023-04-29T10:59:14.252Z,98550.78
2023-04-29T11:01:50.683Z,98560.56
2023-04-29T11:04:22.856Z,98569.97
2023-04-29T11:06:56.235Z,98567.50
2023-04-29T11:09:28.839Z,98556.72
2023-04-29T11:12:03.403Z,98553.50
2023-04-29T11:14:40.295Z,98563.84
2023-04-29T11:17:10.891Z,98554.75
2023-04-29T11:19:42.909Z,98541.25
2023-04-29T11:22:15.677Z,98537.38
2023-04-29T11:24:54.849Z,98540.22
2023-04-29T11:27:28.589Z,98537.66
2023-04-29T11:29:59.213Z,98549.19
2023-04-29T11:32:29.018Z,98543.16
2023-04-29T11:35:07.957Z,98545.41
2023-04-29T11:37:40.516Z,98553.66
2023-04-29T11:40:10.189Z,98547.34
2023-04-29T11:42:45.730Z,98551.53
2023-04-29T11:45:15.289Z,98542.78
2023-04-29T11:47:45.751Z,98550.44
2023-04-29T11:50:16.974Z,98550.19
2023-04-29T11:52:50.388Z,98552.34
2023-04-29T11:55:19.812Z,98543.31
2023-04-29T11:57:50.288Z,98550.06
2023-04-29T12:00:18.803Z,98556.44
2023-04-29T12:02:48.225Z,98561.75
2023-04-29T12:05:19.493Z,98558.31
2023-04-29T12:07:50.331Z,98557.03
2023-04-29T12:10:21.573Z,98566.97
2023-04-29T12:12:50.154Z,98571.59
2023-04-29T12:15:18.653Z,98563.13
2023-04-29T12:17:47.380Z,98568.09
2023-04-29T12:20:16.328Z,98574.22
2023-04-29T12:22:44.829Z,98561.38
2023-04-29T12:25:14.581Z,98566.78
2023-04-29T12:27:43.614Z,98566.47
2023-04-29T12:30:13.178Z,98573.53
2023-04-29T12:32:44.530Z,98568.03
2023-04-29T12:35:17.487Z,98567.28
2023-04-29T12:37:49.588Z,98575.16
2023-04-29T12:40:20.588Z,98576.34
2023-04-29T12:42:49.500Z,98576.03
2023-04-29T12:45:28.816Z,98575.22
2023-04-29T12:48:00.739Z,98579.22
2023-04-29T12:50:32.756Z,98584.69
2023-04-29T12:53:02.019Z,98567.88
2023-04-29T12:55:34.268Z,98568.59
2023-04-29T12:58:03.571Z,98592.44
2023-04-29T13:00:32.577Z,98580.41
2023-04-29T13:03:01.354Z,98593.66
2023-04-29T13:05:29.926Z,98587.91
2023-04-29T13:07:58.381Z,98582.34
2023-04-29T13:10:28.329Z,98589.78
2023-04-29T13:12:58.221Z,98588.84
2023-04-29T13:15:28.920Z,98585.38
2023-04-29T13:17:58.695Z,98575.38
2023-04-29T13:20:29.666Z,98572.06
2023-04-29T13:22:58.072Z,98592.22
2023-04-29T13:25:26.620Z,98591.19
2023-04-29T13:27:55.191Z,98581.84
2023-04-29T13:30:25.468Z,98583.59
2023-04-29T13:32:57.163Z,98585.38
2023-04-29T13:35:32.255Z,98587.78
2023-04-29T13:38:01.366Z,98590.19
2023-04-29T13:40:29.699Z,98590.31
2023-04-29T13:43:06.083Z,98595.44
2023-04-29T13:45:41.300Z,98593.00
2023-04-29T13:48:33.427Z,98600.31
2023-04-29T13:54:10.609Z,98602.94
2023-04-29T14:02:14.877Z,98605.56
2023-04-29T14:04:16.027Z,98604.59
2023-04-29T14:06:46.854Z,98601.19
2023-04-29T14:09:15.317Z,98596.00
2023-04-29T14:11:43.591Z,98596.44
2023-04-29T14:14:11.890Z,98605.94
2023-04-29T14:16:41.680Z,98602.41
2023-04-29T14:19:10.278Z,98613.34
2023-04-29T14:21:40.674Z,98607.63
2023-04-29T14:24:09.001Z,98601.69
2023-04-29T14:26:39.800Z,98602.69
2023-04-29T14:29:08.128Z,98603.25
2023-04-29T14:31:38.908Z,98605.63
2023-04-29T14:34:08.681Z,98609.22
2023-04-29T14:36:37.067Z,98614.28
2023-04-29T14:39:05.335Z,98608.81
2023-04-29T14:41:33.646Z,98615.09
2023-04-29T14:44:02.302Z,98624.03
2023-04-29T14:46:32.589Z,98622.63
2023-04-29T14:49:00.911Z,98622.88
2023-04-29T14:51:32.713Z,98617.63
2023-04-29T14:54:01.025Z,98632.97
2023-04-29T14:56:31.459Z,98638.59
2023-04-29T14:59:09.022Z,98628.28
2023-04-29T15:01:37.339Z,98634.16
2023-04-29T15:04:06.053Z,98632.59
2023-04-29T15:06:38.779Z,98638.59
2023-04-29T15:09:07.919Z,98624.16
2023-04-29T15:11:36.220Z,98630.63
2023-04-29T15:14:04.596Z,98633.13
2023-04-29T15:16:33.149Z,98640.88
2023-04-29T15:19:01.821Z,98631.78
2023-04-29T15:21:30.126Z,98631.50
2023-04-29T15:23:59.815Z,98643.41
2023-04-29T15:26:28.524Z,98639.28
2023-04-29T15:28:57.004Z,98640.38
2023-04-29T15:31:26.192Z,98649.47
2023-04-29T15:33:57.536Z,98641.03
2023-04-29T15:36:30.730Z,98648.78
2023-04-29T15:39:02.668Z,98650.88
2023-04-29T15:41:30.849Z,98652.47
2023-04-29T15:43:58.816Z,98657.09
2023-04-29T15:46:27.939Z,98657.09
2023-04-29T15:48:56.110Z,98660.13
2023-04-29T15:51:24.214Z,98657.28
2023-04-29T15:53:54.692Z,98671.22
2023-04-29T15:56:26.554Z,98658.47
2023-04-29T15:58:54.602Z,98665.91
2023-04-29T16:01:23.107Z,98672.16
2023-04-29T16:03:53.529Z,98667.75
2023-04-29T16:06:21.687Z,98668.28
2023-04-29T16:08:50.203Z,98673.09
2023-04-29T16:11:18.236Z,98676.13
2023-04-29T16:13:47.829Z,98675.75
2023-04-29T16:16:18.630Z,98678.53
2023-04-29T16:18:49.384Z,98683.50
2023-04-29T16:21:17.833Z,98672.09
2023-04-29T16:23:46.147Z,98673.69
2023-04-29T16:26:14.587Z,98682.56
2023-04-29T16:28:42.989Z,98676.41
2023-04-29T16:31:13.364Z,98670.91
2023-04-29T16:33:41.828Z,98684.28
2023-04-29T16:36:09.881Z,98682.97
2023-04-29T16:38:37.966Z,98682.84
2023-04-29T16:41:06.741Z,98681.84
2023-04-29T16:43:34.989Z,98681.41
2023-04-29T16:46:03.537Z,98680.56
2023-04-29T16:48:33.472Z,98682.16
2023-04-29T16:51:01.607Z,98683.59
2023-04-29T16:53:29.584Z,98682.72
2023-04-29T16:55:57.613Z,98684.97
2023-04-29T16:58:25.636Z,98681.59
2023-04-29T17:00:55.176Z,98677.31
2023-04-29T17:03:23.373Z,98684.75
2023-04-29T17:05:53.314Z,98687.09
2023-04-29T17:08:21.485Z,98683.44
2023-04-29T17:10:49.718Z,98681.22
2023-04-29T17:13:18.091Z,98685.44
2023-04-29T17:15:46.696Z,98684.78
2023-04-29T17:18:15.192Z,98675.78
2023-04-29T17:20:48.119Z,98681.41
2023-04-29T17:23:19.296Z,98685.75
2023-04-29T17:25:47.731Z,98684.97
2023-04-29T17:28:16.101Z,98687.81
2023-04-29T17:30:44.402Z,98691.38
2023-04-29T17:33:14.141Z,98675.34
2023-04-29T17:35:42.421Z,98696.31
2023-04-29T17:38:11.987Z,98684.97
2023-04-29T17:40:41.838Z,98695.63
2023-04-29T17:43:10.201Z,98702.38
2023-04-29T17:45:41.233Z,98694.56
2023-04-29T17:48:12.081Z,98691.50
2023-04-29T17:50:40.532Z,98703.78
2023-04-29T17:53:08.788Z,98709.25
2023-04-29T17:55:39.247Z,98704.19
2023-04-29T17:58:08.897Z,98701.28
2023-04-29T18:00:37.258Z,98704.13
2023-04-29T18:03:06.197Z,98711.00
2023-04-29T18:05:34.661Z,98704.94
2023-04-29T18:08:03.327Z,98708.97
2023-04-29T18:10:33.699Z,98713.44
2023-04-29T18:13:03.222Z,98718.88
2023-04-29T18:15:33.238Z,98719.47
2023-04-29T18:18:04.940Z,98716.50
2023-04-29T18:20:33.374Z,98714.75
2023-04-29T18:23:01.712Z,98714.44
2023-04-29T18:25:32.417Z,98706.72
2023-04-29T18:28:18.810Z,98711.75
2023-04-29T18:30:50.205Z,98714.53
2023-04-29T18:33:18.986Z,98714.88
2023-04-29T18:35:47.490Z,98714.63
2023-04-29T18:38:17.368Z,98713.41
2023-04-29T18:40:45.952Z,98717.84
2023-04-29T18:43:17.998Z,98728.25
2023-04-29T18:45:50.377Z,98730.81
2023-04-29T18:48:19.257Z,98731.19
2023-04-29T18:50:47.902Z,98730.59
2023-04-29T18:53:16.197Z,98731.31
2023-04-29T18:55:44.570Z,98730.09
2023-04-29T18:58:13.323Z,98732.94
2023-04-29T19:00:41.773Z,98739.19
2023-04-29T19:03:14.347Z,98732.72
2023-04-29T19:05:42.832Z,98748.50
2023-04-29T19:08:11.204Z,98745.09
2023-04-29T19:10:39.702Z,98747.66
2023-04-29T19:13:08.060Z,98750.50
2023-04-29T19:15:36.876Z,98741.28
2023-04-29T19:18:05.219Z,98754.41
2023-04-29T19:20:35.396Z,98762.13
2023-04-29T19:23:03.820Z,98760.72
2023-04-29T19:25:32.167Z,98756.00
2023-04-29T19:28:00.479Z,98766.25
2023-04-29T19:30:28.983Z,98768.78
2023-04-29T19:32:57.665Z,98761.56
2023-04-29T19:35:26.140Z,98775.13
2023-04-29T19:37:55.822Z,98771.88
2023-04-29T19:40:27.379Z,98778.88
2023-04-29T19:42:56.138Z,98770.47
2023-04-29T19:45:24.782Z,98782.31
2023-04-29T19:47:54.859Z,98782.78
2023-04-29T19:50:23.726Z,98781.22
2023-04-29T19:52:52.044Z,98785.63
2023-04-29T19:55:21.931Z,98795.94
2023-04-29T19:57:51.227Z,98787.88
2023-04-29T20:00:23.757Z,98783.38
2023-04-29T20:02:54.357Z,98789.03
2023-04-29T20:05:23.139Z,98788.56
2023-04-29T20:07:51.486Z,98795.31
2023-04-29T20:10:21.321Z,98786.81
2023-04-29T20:12:49.819Z,98791.19
2023-04-29T20:15:20.910Z,98785.88
2023-04-29T20:17:49.373Z,98784.81
2023-04-29T20:20:17.900Z,98784.34
2023-04-29T20:22:46.430Z,98789.78
2023-04-29T20:25:14.812Z,98788.72
2023-04-29T20:27:44.549Z,98795.78
2023-04-29T20:30:13.971Z,98801.06
2023-04-29T20:32:44.616Z,98798.88
2023-04-29T20:35:13.419Z,98793.94
2023-04-29T20:37:41.990Z,98790.72
2023-04-29T20:40:11.698Z,98794.91
2023-04-29T20:42:40.319Z,98802.97
2023-04-29T20:45:11.640Z,98805.44
2023-04-29T20:47:40.147Z,98802.53
2023-04-29T20:50:09.514Z,98808.28
2023-04-29T20:52:46.664Z,98811.34
2023-04-29T20:55:16.011Z,98813.59
2023-04-29T20:57:44.410Z,98815.72
2023-04-29T21:00:15.366Z,98814.78
2023-04-29T21:02:43.746Z,98803.09
2023-04-29T21:05:12.211Z,98804.63
2023-04-29T21:07:41.091Z,98797.47
2023-04-29T21:10:13.502Z,98800.38
2023-04-29T21:12:41.860Z,98806.91
2023-04-29T21:15:11.342Z,98819.25
2023-04-29T21:17:41.048Z,98811.59
2023-04-29T21:20:10.242Z,98813.13
2023-04-29T21:22:38.597Z,98814.34
2023-04-29T21:25:07.404Z,98817.06
2023-04-29T21:27:36.395Z,98812.25
2023-04-29T21:30:05.631Z,98805.00
2023-04-29T21:32:35.714Z,98804.38
2023-04-29T21:35:06.009Z,98804.25
2023-04-29T21:37:34.787Z,98801.69
2023-04-29T21:40:04.206Z,98801.94
2023-04-29T21:42:33.060Z,98806.19
2023-04-29T21:45:02.313Z,98806.22
2023-04-29T21:47:30.699Z,98809.44
2023-04-29T21:49:59.285Z,98818.50
2023-04-29T21:52:29.102Z,98819.69
2023-04-29T21:54:57.815Z,98820.50
2023-04-29T21:57:42.778Z,98835.34
2023-04-29T22:02:42.692Z,98838.72
2023-04-29T22:05:11.498Z,98829.28
2023-04-29T22:07:39.997Z,98827.88
2023-04-29T22:10:09.315Z,98829.72
2023-04-29T22:12:38.129Z,98831.22
2023-04-29T22:15:14.034Z,98831.81
2023-04-29T22:17:57.366Z,98820.13
2023-04-29T22:20:26.752Z,98823.22
2023-04-29T22:22:55.952Z,98821.50
2023-04-29T22:25:24.678Z,98816.41
2023-04-29T22:27:52.991Z,98822.94
2023-04-29T22:30:21.531Z,98813.38
2023-04-29T22:32:49.829Z,98826.78
2023-04-29T22:35:19.817Z,98820.78
2023-04-29T22:37:48.228Z,98828.75
2023-04-29T22:40:16.954Z,98823.94
2023-04-29T22:42:45.236Z,98825.59
2023-04-29T22:45:13.566Z,98825.97
2023-04-29T22:47:43.195Z,98823.38
2023-04-29T22:50:12.198Z,98822.66
2023-04-29T22:52:41.869Z,98838.31
2023-04-29T22:55:10.852Z,98824.25
2023-04-29T22:57:39.098Z,98824.78
2023-04-29T23:00:08.601Z,98832.38
2023-04-29T23:02:36.948Z,98835.41
2023-04-29T23:05:06.666Z,98830.28
2023-04-29T23:07:35.610Z,98837.13
2023-04-29T23:10:06.207Z,98841.63
2023-04-29T23:12:34.582Z,98839.09
2023-04-29T23:15:07.037Z,98839.81
2023-04-29T23:17:37.447Z,98839.38
2023-04-29T23:20:07.535Z,98838.78
2023-04-29T23:22:37.975Z,98838.75
2023-04-29T23:25:08.609Z,98839.91
2023-04-29T23:27:37.187Z,98842.03
2023-04-29T23:30:06.594Z,98841.56
2023-04-29T23:32:37.326Z,98840.59
2023-04-29T23:35:06.272Z,98846.00
2023-04-29T23:37:34.770Z,98840.44
2023-04-29T23:40:04.695Z,98839.66
2023-04-29T23:42:34.676Z,98847.63
2023-04-29T23:45:03.121Z,98847.06
2023-04-29T23:47:31.585Z,98856.66
2023-04-29T23:49:59.928Z,98852.91
2023-04-29T23:52:28.146Z,98847.50
2023-04-29T23:54:56.416Z,98843.13
2023-04-29T23:57:24.652Z,98848.16
2023-04-29T23:59:54.557Z,98853.78
